sensor_id;sensor_type;location;lat;lon;timestamp;pressure;altitude;pressure_sealevel;temperature;humidity
46614;BME280;32338;50.430;6.806;2023-02-23T00:01:14;66123.25;;;6.47;100.00
46614;BME280;32338;50.430;6.806;2023-02-23T00:03:42;66124.97;;;6.48;100.00
46614;BME280;32338;50.430;6.806;2023-02-23T00:06:09;66132.81;;;6.56;100.00
46614;BME280;32338;50.430;6.806;2023-02-23T00:08:38;66125.50;;;6.49;100.00
46614;BME280;32338;50.430;6.806;2023-02-23T00:11:07;66117.84;;;6.44;100.00
46614;BME280;32338;50.430;6.806;2023-02-23T00:13:35;66115.19;;;6.37;100.00
46614;BME280;32338;50.430;6.806;2023-02-23T00:16:06;66108.88;;;6.36;100.00
46614;BME280;32338;50.430;6.806;2023-02-23T00:18:34;66106.97;;;6.32;100.00
46614;BME280;32338;50.430;6.806;2023-02-23T00:21:11;66101.94;;;6.27;100.00
46614;BME280;32338;50.430;6.806;2023-02-23T00:23:39;66106.44;;;6.31;100.00
46614;BME280;32338;50.430;6.806;2023-02-23T00:26:06;66114.63;;;6.37;100.00
46614;BME280;32338;50.430;6.806;2023-02-23T00:28:33;66103.81;;;6.31;100.00
46614;BME280;32338;50.430;6.806;2023-02-23T00:31:00;66105.31;;;6.30;100.00
46614;BME280;32338;50.430;6.806;2023-02-23T00:33:28;66106.28;;;6.36;100.00
46614;BME280;32338;50.430;6.806;2023-02-23T00:36:02;66113.38;;;6.40;100.00
46614;BME280;32338;50.430;6.806;2023-02-23T00:38:29;66114.28;;;6.39;100.00
46614;BME280;32338;50.430;6.806;2023-02-23T00:40:59;66118.38;;;6.38;100.00
46614;BME280;32338;50.430;6.806;2023-02-23T00:43:25;66115.97;;;6.40;100.00
46614;BME280;32338;50.430;6.806;2023-02-23T00:45:53;66106.06;;;6.33;100.00
46614;BME280;32338;50.430;6.806;2023-02-23T00:48:20;66108.09;;;6.33;100.00
46614;BME280;32338;50.430;6.806;2023-02-23T00:50:46;66111.84;;;6.34;100.00
46614;BME280;32338;50.430;6.806;2023-02-23T00:53:16;66112.97;;;6.35;100.00
46614;BME280;32338;50.430;6.806;2023-02-23T00:55:43;66109.59;;;6.32;100.00
46614;BME280;32338;50.430;6.806;2023-02-23T00:58:09;66108.47;;;6.31;100.00
46614;BME280;32338;50.430;6.806;2023-02-23T01:00:39;66102.50;;;6.28;100.00
46614;BME280;32338;50.430;6.806;2023-02-23T01:03:06;66102.50;;;6.28;100.00
46614;BME280;32338;50.430;6.806;2023-02-23T01:05:33;66101.38;;;6.27;100.00
46614;BME280;32338;50.430;6.806;2023-02-23T01:08:00;66093.72;;;6.22;100.00
46614;BME280;32338;50.430;6.806;2023-02-23T01:10:27;66096.53;;;6.25;100.00
46614;BME280;32338;50.430;6.806;2023-02-23T01:12:54;66096.53;;;6.25;100.00
46614;BME280;32338;50.430;6.806;2023-02-23T01:15:21;66099.50;;;6.23;100.00
46614;BME280;32338;50.430;6.806;2023-02-23T01:17:47;66100.25;;;6.26;100.00
46614;BME280;32338;50.430;6.806;2023-02-23T01:20:15;66102.69;;;6.30;100.00
46614;BME280;32338;50.430;6.806;2023-02-23T01:22:44;66105.31;;;6.30;100.00
46614;BME280;32338;50.430;6.806;2023-02-23T01:25:11;66100.63;;;6.24;100.00
46614;BME280;32338;50.430;6.806;2023-02-23T01:27:40;66103.41;;;6.26;100.00
46614;BME280;32338;50.430;6.806;2023-02-23T01:30:07;66096.34;;;6.22;100.00
46614;BME280;32338;50.430;6.806;2023-02-23T01:32:35;66088.09;;;6.17;100.00
46614;BME280;32338;50.430;6.806;2023-02-23T01:35:03;66100.97;;;6.22;100.00
46614;BME280;32338;50.430;6.806;2023-02-23T01:37:31;66098.38;;;6.22;100.00
46614;BME280;32338;50.430;6.806;2023-02-23T01:39:59;66092.94;;;6.19;100.00
46614;BME280;32338;50.430;6.806;2023-02-23T01:42:26;66092.75;;;6.16;100.00
46614;BME280;32338;50.430;6.806;2023-02-23T01:45:30;66102.09;;;6.23;100.00
46614;BME280;32338;50.430;6.806;2023-02-23T01:48:02;66091.63;;;6.15;100.00
46614;BME280;32338;50.430;6.806;2023-02-23T01:50:36;66100.81;;;6.26;100.00
46614;BME280;32338;50.430;6.806;2023-02-23T01:53:04;66095.00;;;6.19;100.00
46614;BME280;32338;50.430;6.806;2023-02-23T01:55:31;66096.34;;;6.22;100.00
46614;BME280;32338;50.430;6.806;2023-02-23T01:58:02;66095.00;;;6.19;100.00
46614;BME280;32338;50.430;6.806;2023-02-23T02:00:32;66086.78;;;6.13;100.00
46614;BME280;32338;50.430;6.806;2023-02-23T02:03:01;66084.53;;;6.11;100.00
46614;BME280;32338;50.430;6.806;2023-02-23T02:05:34;66088.28;;;6.12;100.00
46614;BME280;32338;50.430;6.806;2023-02-23T02:08:03;66087.34;;;6.14;100.00
46614;BME280;32338;50.430;6.806;2023-02-23T02:10:32;66090.16;;;6.16;100.00
46614;BME280;32338;50.430;6.806;2023-02-23T02:13:17;66092.19;;;6.16;100.00
46614;BME280;32338;50.430;6.806;2023-02-23T02:16:13;66093.09;;;6.14;100.00
46614;BME280;32338;50.430;6.806;2023-02-23T02:18:51;66098.16;;;6.19;100.00
46614;BME280;32338;50.430;6.806;2023-02-23T02:27:50;66099.84;;;6.21;100.00
46614;BME280;32338;50.430;6.806;2023-02-23T02:30:26;66097.63;;;6.26;100.00
46614;BME280;32338;50.430;6.806;2023-02-23T02:33:39;66110.84;;;6.28;100.00
46614;BME280;32338;50.430;6.806;2023-02-23T02:39:22;66104.19;;;6.29;100.00
46614;BME280;32338;50.430;6.806;2023-02-23T02:42:07;66103.81;;;6.31;100.00
46614;BME280;32338;50.430;6.806;2023-02-23T02:44:41;66100.66;;;6.31;100.00
46614;BME280;32338;50.430;6.806;2023-02-23T02:47:16;66108.09;;;6.33;100.00
46614;BME280;32338;50.430;6.806;2023-02-23T02:49:48;66122.13;;;6.46;100.00
46614;BME280;32338;50.430;6.806;2023-02-23T02:52:19;66112.25;;;6.39;100.00
46614;BME280;32338;50.430;6.806;2023-02-23T02:54:52;66112.03;;;6.37;100.00
46614;BME280;32338;50.430;6.806;2023-02-23T02:57:25;66104.03;;;6.34;100.00
46614;BME280;32338;50.430;6.806;2023-02-23T02:59:53;66108.69;;;6.33;100.00
46614;BME280;32338;50.430;6.806;2023-02-23T03:02:39;66119.50;;;6.39;100.00
46614;BME280;32338;50.430;6.806;2023-02-23T03:05:27;66109.78;;;6.35;100.00
46614;BME280;32338;50.430;6.806;2023-02-23T03:08:19;66115.03;;;6.42;100.00
46614;BME280;32338;50.430;6.806;2023-02-23T03:11:06;66110.91;;;6.36;100.00
46614;BME280;32338;50.430;6.806;2023-02-23T03:14:02;66102.69;;;6.30;100.00
46614;BME280;32338;50.430;6.806;2023-02-23T03:16:56;66118.38;;;6.38;100.00
46614;BME280;32338;50.430;6.806;2023-02-23T03:19:49;66106.78;;;6.29;100.00
46614;BME280;32338;50.430;6.806;2023-02-23T03:22:38;66105.09;;;6.28;100.00
46614;BME280;32338;50.430;6.806;2023-02-23T03:25:34;66101.16;;;6.24;100.00
46614;BME280;32338;50.430;6.806;2023-02-23T03:28:31;66100.25;;;6.26;100.00
46614;BME280;32338;50.430;6.806;2023-02-23T03:31:20;66100.97;;;6.22;100.00
46614;BME280;32338;50.430;6.806;2023-02-23T03:34:10;66093.31;;;6.17;100.00
46614;BME280;32338;50.430;6.806;2023-02-23T03:37:00;66083.06;;;6.12;100.00
46614;BME280;32338;50.430;6.806;2023-02-23T03:39:51;66095.00;;;6.19;100.00
46614;BME280;32338;50.430;6.806;2023-02-23T03:42:40;66088.28;;;6.12;100.00
46614;BME280;32338;50.430;6.806;2023-02-23T03:45:28;66079.69;;;6.09;100.00
46614;BME280;32338;50.430;6.806;2023-02-23T03:48:14;66077.44;;;6.07;100.00
46614;BME280;32338;50.430;6.806;2023-02-23T03:51:04;66088.97;;;6.08;100.00
46614;BME280;32338;50.430;6.806;2023-02-23T03:53:52;66088.63;;;6.10;100.00
46614;BME280;32338;50.430;6.806;2023-02-23T03:56:40;66086.00;;;6.10;100.00
46614;BME280;32338;50.430;6.806;2023-02-23T03:59:30;66087.34;;;6.14;100.00
46614;BME280;32338;50.430;6.806;2023-02-23T04:02:18;66086.00;;;6.10;100.00
46614;BME280;32338;50.430;6.806;2023-02-23T04:05:07;66083.75;;;6.08;100.00
46614;BME280;32338;50.430;6.806;2023-02-23T04:07:52;66080.41;;;6.05;100.00
46614;BME280;32338;50.430;6.806;2023-02-23T04:10:42;66083.41;;;6.10;100.00
46614;BME280;32338;50.430;6.806;2023-02-23T04:13:31;66084.88;;;6.09;100.00
46614;BME280;32338;50.430;6.806;2023-02-23T04:16:00;66075.00;;;6.03;100.00
46614;BME280;32338;50.430;6.806;2023-02-23T04:18:31;66079.63;;;6.02;100.00
46614;BME280;32338;50.430;6.806;2023-02-23T04:20:59;66076.69;;;6.04;100.00
46614;BME280;32338;50.430;6.806;2023-02-23T04:23:26;66081.72;;;6.09;100.00
46614;BME280;32338;50.430;6.806;2023-02-23T04:25:53;66083.75;;;6.08;100.00
46614;BME280;32338;50.430;6.806;2023-02-23T04:28:21;66083.00;;;6.05;100.00
46614;BME280;32338;50.430;6.806;2023-02-23T04:30:48;66078.16;;;6.03;100.00
46614;BME280;32338;50.430;6.806;2023-02-23T04:33:16;66074.22;;;5.99;100.00
46614;BME280;32338;50.430;6.806;2023-02-23T04:35:44;66065.06;;;5.96;100.00
46614;BME280;32338;50.430;6.806;2023-02-23T04:38:11;66058.34;;;5.90;100.00
46614;BME280;32338;50.430;6.806;2023-02-23T04:40:37;66060.72;;;5.87;100.00
46614;BME280;32338;50.430;6.806;2023-02-23T04:43:04;66057.03;;;5.86;100.00
46614;BME280;32338;50.430;6.806;2023-02-23T04:45:30;66056.44;;;5.85;100.00
46614;BME280;32338;50.430;6.806;2023-02-23T04:47:57;66061.31;;;5.88;100.00
46614;BME280;32338;50.430;6.806;2023-02-23T04:50:24;66061.84;;;5.88;100.00
46614;BME280;32338;50.430;6.806;2023-02-23T04:52:51;66062.44;;;5.89;100.00
46614;BME280;32338;50.430;6.806;2023-02-23T04:55:20;66063.56;;;5.90;100.00
46614;BME280;32338;50.430;6.806;2023-02-23T05:00:17;66080.41;;;6.05;100.00
46614;BME280;32338;50.430;6.806;2023-02-23T05:02:44;66069.03;;;5.99;100.00
46614;BME280;32338;50.430;6.806;2023-02-23T05:05:11;66067.31;;;5.98;100.00
46614;BME280;32338;50.430;6.806;2023-02-23T05:07:38;66066.75;;;5.97;100.00
46614;BME280;32338;50.430;6.806;2023-02-23T05:10:06;66096.09;;;6.20;100.00
46614;BME280;32338;50.430;6.806;2023-02-23T05:12:33;66082.09;;;6.07;100.00
46614;BME280;32338;50.430;6.806;2023-02-23T05:15:00;66069.59;;;6.00;100.00
46614;BME280;32338;50.430;6.806;2023-02-23T05:17:27;66069.72;;;5.95;100.00
46614;BME280;32338;50.430;6.806;2023-02-23T05:19:53;66061.16;;;5.92;100.00
46614;BME280;32338;50.430;6.806;2023-02-23T05:22:20;66065.78;;;5.92;100.00
46614;BME280;32338;50.430;6.806;2023-02-23T05:24:47;66068.19;;;5.89;100.00
46614;BME280;32338;50.430;6.806;2023-02-23T05:27:16;66065.06;;;5.96;100.00
46614;BME280;32338;50.430;6.806;2023-02-23T05:29:42;66064.09;;;5.90;100.00
46614;BME280;32338;50.430;6.806;2023-02-23T05:32:09;66063.56;;;5.90;100.00
46614;BME280;32338;50.430;6.806;2023-02-23T05:34:36;66074.00;;;5.97;100.00
46614;BME280;32338;50.430;6.806;2023-02-23T05:37:03;66063.97;;;5.95;100.00
46614;BME280;32338;50.430;6.806;2023-02-23T05:39:30;66058.91;;;5.90;100.00
46614;BME280;32338;50.430;6.806;2023-02-23T05:41:56;66058.69;;;5.88;100.00
46614;BME280;32338;50.430;6.806;2023-02-23T05:44:24;66078.53;;;6.01;100.00
46614;BME280;32338;50.430;6.806;2023-02-23T05:46:51;66069.91;;;5.98;100.00
46614;BME280;32338;50.430;6.806;2023-02-23T05:49:17;66068.59;;;5.94;100.00
46614;BME280;32338;50.430;6.806;2023-02-23T05:51:44;66067.66;;;5.96;100.00
46614;BME280;32338;50.430;6.806;2023-02-23T05:54:11;66084.88;;;6.09;100.00
46614;BME280;32338;50.430;6.806;2023-02-23T05:56:38;66077.03;;;6.02;100.00
46614;BME280;32338;50.430;6.806;2023-02-23T05:59:05;66075.00;;;6.03;100.00
46614;BME280;32338;50.430;6.806;2023-02-23T06:01:33;66084.88;;;6.09;100.00
46614;BME280;32338;50.430;6.806;2023-02-23T06:03:59;66079.28;;;6.04;100.00
46614;BME280;32338;50.430;6.806;2023-02-23T06:06:26;66071.63;;;5.99;100.00
46614;BME280;32338;50.430;6.806;2023-02-23T06:08:52;66075.00;;;6.03;100.00
46614;BME280;32338;50.430;6.806;2023-02-23T06:11:19;66076.69;;;6.04;100.00
46614;BME280;32338;50.430;6.806;2023-02-23T06:13:46;66077.94;;;6.00;100.00
46614;BME280;32338;50.430;6.806;2023-02-23T06:16:13;66079.84;;;6.05;100.00
46614;BME280;32338;50.430;6.806;2023-02-23T06:18:41;66078.94;;;6.06;100.00
46614;BME280;32338;50.430;6.806;2023-02-23T06:21:07;66080.41;;;6.05;100.00
46614;BME280;32338;50.430;6.806;2023-02-23T06:23:34;66066.19;;;5.97;100.00
46614;BME280;32338;50.430;6.806;2023-02-23T06:26:02;66077.03;;;6.02;100.00
46614;BME280;32338;50.430;6.806;2023-02-23T06:28:28;66097.41;;;6.16;100.00
46614;BME280;32338;50.430;6.806;2023-02-23T06:30:55;66077.44;;;6.07;100.00
46614;BME280;32338;50.430;6.806;2023-02-23T06:33:22;66072.75;;;6.00;100.00
46614;BME280;32338;50.430;6.806;2023-02-23T06:35:51;66079.06;;;6.02;100.00
46614;BME280;32338;50.430;6.806;2023-02-23T06:38:19;66068.25;;;5.96;100.00
46614;BME280;32338;50.430;6.806;2023-02-23T06:40:46;66071.19;;;5.94;100.00
46614;BME280;32338;50.430;6.806;2023-02-23T06:43:12;66065.25;;;5.91;100.00
46614;BME280;32338;50.430;6.806;2023-02-23T06:45:39;66064.09;;;5.90;100.00
46614;BME280;32338;50.430;6.806;2023-02-23T06:48:06;66062.97;;;5.89;100.00
46614;BME280;32338;50.430;6.806;2023-02-23T06:50:32;66064.31;;;5.93;100.00
46614;BME280;32338;50.430;6.806;2023-02-23T06:53:00;66067.25;;;5.91;100.00
46614;BME280;32338;50.430;6.806;2023-02-23T06:55:27;66074.00;;;5.97;100.00
46614;BME280;32338;50.430;6.806;2023-02-23T06:57:53;66081.53;;;6.06;100.00
46614;BME280;32338;50.430;6.806;2023-02-23T07:00:21;66076.69;;;6.04;100.00
46614;BME280;32338;50.430;6.806;2023-02-23T07:02:48;66073.31;;;6.01;100.00
46614;BME280;32338;50.430;6.806;2023-02-23T07:05:14;66072.75;;;6.00;100.00
46614;BME280;32338;50.430;6.806;2023-02-23T07:07:41;66069.59;;;6.00;100.00
46614;BME280;32338;50.430;6.806;2023-02-23T07:10:10;66066.75;;;5.97;100.00
46614;BME280;32338;50.430;6.806;2023-02-23T07:12:37;66068.78;;;5.97;100.00
46614;BME280;32338;50.430;6.806;2023-02-23T07:15:05;66069.16;;;5.95;100.00
46614;BME280;32338;50.430;6.806;2023-02-23T07:17:32;66065.63;;;5.96;100.00
46614;BME280;32338;50.430;6.806;2023-02-23T07:19:58;66069.16;;;5.95;100.00
46614;BME280;32338;50.430;6.806;2023-02-23T07:22:25;66060.97;;;5.90;100.00
46614;BME280;32338;50.430;6.806;2023-02-23T07:24:54;66063.19;;;5.92;100.00
46614;BME280;32338;50.430;6.806;2023-02-23T07:27:22;66070.84;;;5.96;100.00
46614;BME280;32338;50.430;6.806;2023-02-23T07:29:49;66083.75;;;6.08;100.00
46614;BME280;32338;50.430;6.806;2023-02-23T07:32:15;66089.03;;;6.15;100.00
46614;BME280;32338;50.430;6.806;2023-02-23T07:34:42;66098.94;;;6.22;100.00
46614;BME280;32338;50.430;6.806;2023-02-23T07:37:10;66093.31;;;6.17;100.00
46614;BME280;32338;50.430;6.806;2023-02-23T07:39:36;66089.38;;;6.13;100.00
46614;BME280;32338;50.430;6.806;2023-02-23T07:42:03;66074.06;;;6.04;100.00
46614;BME280;32338;50.430;6.806;2023-02-23T07:44:31;66075.13;;;5.98;100.00
46614;BME280;32338;50.430;6.806;2023-02-23T07:46:58;66068.78;;;5.97;100.00
46614;BME280;32338;50.430;6.806;2023-02-23T07:49:24;66071.19;;;5.94;100.00
46614;BME280;32338;50.430;6.806;2023-02-23T07:51:51;66061.16;;;5.92;100.00
46614;BME280;32338;50.430;6.806;2023-02-23T07:54:17;66074.56;;;5.97;100.00
46614;BME280;32338;50.430;6.806;2023-02-23T07:56:44;66085.81;;;6.08;100.00
46614;BME280;32338;50.430;6.806;2023-02-23T07:59:11;66084.88;;;6.09;100.00
46614;BME280;32338;50.430;6.806;2023-02-23T08:01:39;66091.97;;;6.13;100.00
46614;BME280;32338;50.430;6.806;2023-02-23T08:04:06;66093.69;;;6.15;100.00
46614;BME280;32338;50.430;6.806;2023-02-23T08:06:32;66093.88;;;6.18;100.00
46614;BME280;32338;50.430;6.806;2023-02-23T08:08:59;66106.22;;;6.29;100.00
46614;BME280;32338;50.430;6.806;2023-02-23T08:11:26;66103.41;;;6.26;100.00
46614;BME280;32338;50.430;6.806;2023-02-23T08:13:53;66101.94;;;6.27;100.00
46614;BME280;32338;50.430;6.806;2023-02-23T08:16:24;66109.44;;;6.37;100.00
46614;BME280;32338;50.430;6.806;2023-02-23T08:18:52;66129.25;;;6.50;100.00
46614;BME280;32338;50.430;6.806;2023-02-23T08:21:18;66128.13;;;6.49;100.00
46614;BME280;32338;50.430;6.806;2023-02-23T08:23:45;66126.84;;;6.53;100.00
46614;BME280;32338;50.430;6.806;2023-02-23T08:26:11;66144.19;;;6.61;100.00
46614;BME280;32338;50.430;6.806;2023-02-23T08:28:38;66146.09;;;6.65;100.00
46614;BME280;32338;50.430;6.806;2023-02-23T08:31:08;66145.16;;;6.67;100.00
46614;BME280;32338;50.430;6.806;2023-02-23T08:33:34;66152.66;;;6.76;100.00
46614;BME280;32338;50.430;6.806;2023-02-23T08:36:04;66160.13;;;6.78;100.00
46614;BME280;32338;50.430;6.806;2023-02-23T08:38:31;66160.28;;;6.74;100.00
46614;BME280;32338;50.430;6.806;2023-02-23T08:41:01;66152.28;;;6.71;100.00
46614;BME280;32338;50.430;6.806;2023-02-23T08:43:28;66149.66;;;6.71;100.00
46614;BME280;32338;50.430;6.806;2023-02-23T08:45:54;66145.16;;;6.67;100.00
46614;BME280;32338;50.430;6.806;2023-02-23T08:48:21;66154.28;;;6.71;100.00
46614;BME280;32338;50.430;6.806;2023-02-23T08:50:48;66145.88;;;6.63;100.00
46614;BME280;32338;50.430;6.806;2023-02-23T08:53:16;66144.06;;;6.66;100.00
46614;BME280;32338;50.430;6.806;2023-02-23T08:55:43;66141.59;;;6.61;100.00
46614;BME280;32338;50.430;6.806;2023-02-23T08:58:10;66145.72;;;6.68;100.00
46614;BME280;32338;50.430;6.806;2023-02-23T09:00:37;66149.66;;;6.71;100.00
46614;BME280;32338;50.430;6.806;2023-02-23T09:03:04;66151.34;;;6.73;100.00
46614;BME280;32338;50.430;6.806;2023-02-23T09:05:30;66158.28;;;6.81;100.00
46614;BME280;32338;50.430;6.806;2023-02-23T09:07:57;66162.78;;;6.86;100.00
46614;BME280;32338;50.430;6.806;2023-02-23T09:10:26;66165.19;;;6.83;100.00
46614;BME280;32338;50.430;6.806;2023-02-23T09:12:53;66165.03;;;6.88;100.00
46614;BME280;32338;50.430;6.806;2023-02-23T09:15:20;66168.75;;;6.89;100.00
46614;BME280;32338;50.430;6.806;2023-02-23T09:17:47;66176.59;;;6.96;100.00
46614;BME280;32338;50.430;6.806;2023-02-23T09:20:14;66178.50;;;7.00;100.00
46614;BME280;32338;50.430;6.806;2023-02-23T09:22:42;66184.84;;;7.01;100.00
46614;BME280;32338;50.430;6.806;2023-02-23T09:25:13;66193.66;;;7.14;100.00
46614;BME280;32338;50.430;6.806;2023-02-23T09:27:44;66213.84;;;7.25;100.00
46614;BME280;32338;50.430;6.806;2023-02-23T09:30:11;66211.78;;;7.26;100.00
46614;BME280;32338;50.430;6.806;2023-02-23T09:32:42;66214.25;;;7.30;100.00
46614;BME280;32338;50.430;6.806;2023-02-23T09:35:09;66209.19;;;7.26;100.00
46614;BME280;32338;50.430;6.806;2023-02-23T09:37:36;66215.94;;;7.32;100.00
46614;BME280;32338;50.430;6.806;2023-02-23T09:40:03;66216.31;;;7.30;100.00
46614;BME280;32338;50.430;6.806;2023-02-23T09:42:36;66224.00;;;7.42;100.00
46614;BME280;32338;50.430;6.806;2023-02-23T09:45:17;66226.41;;;7.39;100.00
46614;BME280;32338;50.430;6.806;2023-02-23T09:47:57;66236.13;;;7.43;100.00
46614;BME280;32338;50.430;6.806;2023-02-23T09:50:27;66222.31;;;7.40;100.00
46614;BME280;32338;50.430;6.806;2023-02-23T09:52:59;66207.69;;;7.27;100.00
46614;BME280;32338;50.430;6.806;2023-02-23T09:55:27;66206.94;;;7.24;100.00
46614;BME280;32338;50.430;6.806;2023-02-23T09:57:56;66214.81;;;7.31;100.00
46614;BME280;32338;50.430;6.806;2023-02-23T10:00:27;66229.78;;;7.42;100.00
46614;BME280;32338;50.430;6.806;2023-02-23T10:03:02;66226.97;;;7.40;100.00
46614;BME280;32338;50.430;6.806;2023-02-23T10:05:37;66224.16;;;7.37;100.00
46614;BME280;32338;50.430;6.806;2023-02-23T10:08:17;66211.09;;;7.30;100.00
46614;BME280;32338;50.430;6.806;2023-02-23T10:10:47;66212.38;;;7.26;100.00
46614;BME280;32338;50.430;6.806;2023-02-23T10:13:21;66231.09;;;7.46;100.00
46614;BME280;32338;50.430;6.806;2023-02-23T10:15:55;66237.47;;;7.54;100.00
46614;BME280;32338;50.430;6.806;2023-02-23T10:18:30;66245.72;;;7.59;100.00
46614;BME280;32338;50.430;6.806;2023-02-23T10:21:04;66240.81;;;7.50;100.00
46614;BME280;32338;50.430;6.806;2023-02-23T10:23:35;66234.06;;;7.44;100.00
46614;BME280;32338;50.430;6.806;2023-02-23T10:26:05;66234.69;;;7.52;100.00
46614;BME280;32338;50.430;6.806;2023-02-23T10:28:35;66241.22;;;7.55;100.00
46614;BME280;32338;50.430;6.806;2023-02-23T10:31:20;66242.69;;;7.54;100.00
46614;BME280;32338;50.430;6.806;2023-02-23T10:33:48;66236.72;;;7.51;100.00
46614;BME280;32338;50.430;6.806;2023-02-23T10:36:28;66250.78;;;7.64;100.00
46614;BME280;32338;50.430;6.806;2023-02-23T10:38:56;66272.69;;;7.84;100.00
46614;BME280;32338;50.430;6.806;2023-02-23T10:41:23;66261.66;;;7.76;100.00
46614;BME280;32338;50.430;6.806;2023-02-23T10:43:49;66264.81;;;7.77;100.00
46614;BME280;32338;50.430;6.806;2023-02-23T10:46:20;66262.41;;;7.79;100.00
46614;BME280;32338;50.430;6.806;2023-02-23T10:48:48;66288.78;;;7.97;100.00
46614;BME280;32338;50.430;6.806;2023-02-23T10:51:19;66281.69;;;7.92;100.00
46614;BME280;32338;50.430;6.806;2023-02-23T10:53:47;66290.47;;;7.98;100.00
46614;BME280;32338;50.430;6.806;2023-02-23T10:56:16;66288.63;;;8.01;100.00
46614;BME280;32338;50.430;6.806;2023-02-23T10:58:45;66280.75;;;7.94;100.00
46614;BME280;32338;50.430;6.806;2023-02-23T11:01:14;66282.97;;;7.89;100.00
46614;BME280;32338;50.430;6.806;2023-02-23T11:03:45;66271.22;;;7.85;100.00
46614;BME280;32338;50.430;6.806;2023-02-23T11:06:29;66274.94;;;7.86;100.00
46614;BME280;32338;50.430;6.806;2023-02-23T11:08:58;66276.63;;;7.88;100.00
46614;BME280;32338;50.430;6.806;2023-02-23T11:11:54;66280.38;;;7.89;100.00
46614;BME280;32338;50.430;6.806;2023-02-23T11:14:25;66279.25;;;7.88;100.00
46614;BME280;32338;50.430;6.806;2023-02-23T11:16:54;66288.59;;;7.94;100.00
46614;BME280;32338;50.430;6.806;2023-02-23T11:19:33;66292.34;;;8.02;100.00
46614;BME280;32338;50.430;6.806;2023-02-23T11:22:04;66292.94;;;8.03;100.00
46614;BME280;32338;50.430;6.806;2023-02-23T11:24:33;66295.75;;;8.05;100.00
46614;BME280;32338;50.430;6.806;2023-02-23T11:27:02;66310.16;;;8.16;100.00
46614;BME280;32338;50.430;6.806;2023-02-23T11:29:33;66301.91;;;8.11;100.00
46614;BME280;32338;50.430;6.806;2023-02-23T11:32:05;66308.09;;;8.17;100.00
46614;BME280;32338;50.430;6.806;2023-02-23T11:34:37;66303.97;;;8.10;100.00
46614;BME280;32338;50.430;6.806;2023-02-23T11:37:20;66298.56;;;8.08;100.00
46614;BME280;32338;50.430;6.806;2023-02-23T11:39:52;66298.72;;;8.03;100.00
46614;BME280;32338;50.430;6.806;2023-02-23T11:42:21;66282.44;;;7.95;100.00
46614;BME280;32338;50.430;6.806;2023-02-23T11:44:51;66276.25;;;7.90;100.00
46614;BME280;32338;50.430;6.806;2023-02-23T11:47:20;66275.91;;;7.92;100.00
46614;BME280;32338;50.430;6.806;2023-02-23T11:49:49;66279.78;;;7.88;100.00
46614;BME280;32338;50.430;6.806;2023-02-23T11:52:18;66278.31;;;7.89;100.00
46614;BME280;32338;50.430;6.806;2023-02-23T11:54:55;66282.59;;;7.91;100.00
46614;BME280;32338;50.430;6.806;2023-02-23T11:57:25;66276.63;;;7.88;100.00
46614;BME280;32338;50.430;6.806;2023-02-23T11:59:54;66276.44;;;7.85;100.00
46614;BME280;32338;50.430;6.806;2023-02-23T12:02:24;66262.78;;;7.77;100.00
46614;BME280;32338;50.430;6.806;2023-02-23T12:05:01;66254.91;;;7.70;100.00
46614;BME280;32338;50.430;6.806;2023-02-23T12:07:35;66255.47;;;7.71;100.00
46614;BME280;32338;50.430;6.806;2023-02-23T12:10:12;66252.47;;;7.66;100.00
46614;BME280;32338;50.430;6.806;2023-02-23T12:12:48;66248.13;;;7.57;100.00
46614;BME280;32338;50.430;6.806;2023-02-23T12:15:23;66237.28;;;7.52;100.00
46614;BME280;32338;50.430;6.806;2023-02-23T12:17:55;66248.91;;;7.60;100.00
46614;BME280;32338;50.430;6.806;2023-02-23T12:20:29;66242.91;;;7.57;100.00
46614;BME280;32338;50.430;6.806;2023-02-23T12:22:59;66253.38;;;7.64;100.00
46614;BME280;32338;50.430;6.806;2023-02-23T12:25:33;66257.88;;;7.68;100.00
46614;BME280;32338;50.430;6.806;2023-02-23T12:28:08;66255.47;;;7.71;100.00
46614;BME280;32338;50.430;6.806;2023-02-23T12:30:42;66260.88;;;7.73;100.00
46614;BME280;32338;50.430;6.806;2023-02-23T12:33:14;66262.56;;;7.75;100.00
46614;BME280;32338;50.430;6.806;2023-02-23T12:35:48;66269.31;;;7.81;100.00
46614;BME280;32338;50.430;6.806;2023-02-23T12:38:22;66277.91;;;7.84;100.00
46614;BME280;32338;50.430;6.806;2023-02-23T12:40:57;66254.72;;;7.68;100.00
46614;BME280;32338;50.430;6.806;2023-02-23T12:43:31;66244.03;;;7.58;100.00
46614;BME280;32338;50.430;6.806;2023-02-23T12:46:08;66243.06;;;7.52;100.00
46614;BME280;32338;50.430;6.806;2023-02-23T12:48:47;66235.03;;;7.50;100.00
46614;BME280;32338;50.430;6.806;2023-02-23T12:51:27;66233.34;;;7.48;100.00
46614;BME280;32338;50.430;6.806;2023-02-23T12:53:56;66236.16;;;7.51;100.00
46614;BME280;32338;50.430;6.806;2023-02-23T12:56:33;66238.63;;;7.55;100.00
46614;BME280;32338;50.430;6.806;2023-02-23T12:59:19;66242.53;;;7.59;100.00
46614;BME280;32338;50.430;6.806;2023-02-23T13:01:53;66246.47;;;7.62;100.00
46614;BME280;32338;50.430;6.806;2023-02-23T13:04:36;66252.66;;;7.68;100.00
46614;BME280;32338;50.430;6.806;2023-02-23T13:07:14;66251.31;;;7.65;100.00
46614;BME280;32338;50.430;6.806;2023-02-23T13:09:56;66259.00;;;7.69;100.00
46614;BME280;32338;50.430;6.806;2023-02-23T13:12:35;66260.13;;;7.70;100.00
46614;BME280;32338;50.430;6.806;2023-02-23T13:15:17;66249.09;;;7.62;100.00
46614;BME280;32338;50.430;6.806;2023-02-23T13:17:52;66237.09;;;7.49;100.00
46614;BME280;32338;50.430;6.806;2023-02-23T13:20:25;66228.88;;;7.44;100.00
46614;BME280;32338;50.430;6.806;2023-02-23T13:23:07;66233.69;;;7.46;100.00
46614;BME280;32338;50.430;6.806;2023-02-23T13:25:41;66224.16;;;7.37;100.00
46614;BME280;32338;50.430;6.806;2023-02-23T13:28:17;66225.47;;;7.41;100.00
46614;BME280;32338;50.430;6.806;2023-02-23T13:30:44;66229.78;;;7.42;100.00
46614;BME280;32338;50.430;6.806;2023-02-23T13:33:18;66230.34;;;7.43;100.00
46614;BME280;32338;50.430;6.806;2023-02-23T13:35:48;66224.34;;;7.40;100.00